Map

Track Data

SID SEASON NUMBER BASIN SUBBASIN NAME ISO_TIME NATURE LAT LON WMO_WIND WMO_PRES WMO_AGENCY TRACK_TYPE DIST2LAND LANDFALL IFLAG USA_AGENCY USA_ATCF_ID USA_LAT USA_LON USA_RECORD USA_STATUS USA_WIND USA_PRES USA_SSHS USA_R34_NE USA_R34_SE USA_R34_SW USA_R34_NW USA_R50_NE USA_R50_SE USA_R50_SW USA_R50_NW USA_R64_NE USA_R64_SE USA_R64_SW USA_R64_NW USA_POCI USA_ROCI USA_RMW USA_EYE TOKYO_LAT TOKYO_LON TOKYO_GRADE TOKYO_WIND TOKYO_PRES TOKYO_R50_DIR TOKYO_R50_LONG TOKYO_R50_SHORT TOKYO_R30_DIR TOKYO_R30_LONG TOKYO_R30_SHORT TOKYO_LAND CMA_LAT CMA_LON CMA_CAT CMA_WIND CMA_PRES HKO_LAT HKO_LON HKO_CAT HKO_WIND HKO_PRES NEWDELHI_LAT NEWDELHI_LON NEWDELHI_GRADE NEWDELHI_WIND NEWDELHI_PRES NEWDELHI_CI NEWDELHI_DP NEWDELHI_POCI REUNION_LAT REUNION_LON REUNION_TYPE REUNION_WIND REUNION_PRES REUNION_TNUM REUNION_CI REUNION_RMW REUNION_R34_NE REUNION_R34_SE REUNION_R34_SW REUNION_R34_NW REUNION_R50_NE REUNION_R50_SE REUNION_R50_SW REUNION_R50_NW REUNION_R64_NE REUNION_R64_SE REUNION_R64_SW REUNION_R64_NW BOM_LAT BOM_LON BOM_TYPE BOM_WIND BOM_PRES BOM_TNUM BOM_CI BOM_RMW BOM_R34_NE BOM_R34_SE BOM_R34_SW BOM_R34_NW BOM_R50_NE BOM_R50_SE BOM_R50_SW BOM_R50_NW BOM_R64_NE BOM_R64_SE BOM_R64_SW BOM_R64_NW BOM_ROCI BOM_POCI BOM_EYE BOM_POS_METHOD BOM_PRES_METHOD NADI_LAT NADI_LON NADI_CAT NADI_WIND NADI_PRES WELLINGTON_LAT WELLINGTON_LON WELLINGTON_WIND WELLINGTON_PRES DS824_LAT DS824_LON DS824_STAGE DS824_WIND DS824_PRES TD9636_LAT TD9636_LON TD9636_STAGE TD9636_WIND TD9636_PRES TD9635_LAT TD9635_LON TD9635_WIND TD9635_PRES TD9635_ROCI NEUMANN_LAT NEUMANN_LON NEUMANN_CLASS NEUMANN_WIND NEUMANN_PRES MLC_LAT MLC_LON MLC_CLASS MLC_WIND MLC_PRES USA_GUST BOM_GUST BOM_GUST_PER REUNION_GUST REUNION_GUST_PER USA_SEAHGT USA_SEARAD_NE USA_SEARAD_SE USA_SEARAD_SW USA_SEARAD_NW STORM_SPEED STORM_DIR
2013296S07079 2014 85 SI MM NOT_NAMED 2013-10-23 00:00:00 TS -7.40000 78.5000 20 1006 reunion main 1508 1508 _____O________ -1 -7.40000 78.5000 1 20 1006 9.90000 1 8 227
2013296S07079 2014 85 SI MM NOT_NAMED 2013-10-23 03:00:00 TS -7.67757 78.2001 main 1547 1547 _____P________ -1 -7.67757 78.2001 1 20 1006 8 230
2013296S07079 2014 85 SI MM NOT_NAMED 2013-10-23 06:00:00 TS -7.90000 77.9000 20 1006 reunion main 1575 1575 _____O________ -1 -7.90000 77.9000 1 20 1006 9.90000 1 7 240
2013296S07079 2014 85 SI MM NOT_NAMED 2013-10-23 09:00:00 TS -8.02990 77.5874 main 1592 1592 _____P________ -1 -8.02990 77.5874 1 20 1006 8 247
2013296S07079 2014 85 SI MM NOT_NAMED 2013-10-23 12:00:00 TS -8.20000 77.1800 20 1006 reunion main 1624 1624 O____O________ jtwc_sh SH012014 -8.60000 77.1000 DB 20 1007 -3 1007 180 40 -8.10000 77.2000 1 20 1006 9.90000 1 10 251
2013296S07079 2014 85 SI MM NOT_NAMED 2013-10-23 15:00:00 TS -8.35585 76.6475 main 1662 1662 P____P________ SH012014 -8.75270 76.5376 DB 20 1007 -3 1008 175 40 -8.15743 76.7024 1 20 1006 12 255
2013296S07079 2014 85 SI MM NOT_NAMED 2013-10-23 18:00:00 TS -8.50000 76.0571 20 1006 reunion main 1689 1689 O____O________ jtwc_sh SH012014 -8.90000 76.0000 DB 20 1007 -3 1009 170 40 -8.20000 76.1000 1 20 1006 1.00000 1.00000 1 12 256
2013296S07079 2014 85 SI MM NOT_NAMED 2013-10-23 21:00:00 TS -8.63997 75.4538 main 1720 1720 P____P________ SH012014 -9.02987 75.5000 DB 20 1007 -3 1009 170 40 -8.25006 75.4075 1 21 1005 12 260
2013296S07079 2014 85 SI MM NOT_NAMED 2013-10-24 00:00:00 TS -8.70000 74.8500 23 1005 reunion main 1752 1756 O____O________ jtwc_sh SH012014 -9.10000 75.0000 DB 20 1007 -3 1009 170 40 -8.30000 74.7000 1 23 1005 1.50000 1.50000 1 12 266
2013296S07079 2014 85 SI MM NOT_NAMED 2013-10-24 03:00:00 TS -8.71494 74.2600 main 1776 1776 P____P________ SH012014 -9.08748 74.4500 DB 20 1007 -3 1009 170 40 -8.34240 74.0700 1 23 1005 11 270
2013296S07079 2014 85 SI MM NOT_NAMED 2013-10-24 06:00:00 TS -8.70000 73.7000 23 1005 reunion main 1802 1802 O____O________ jtwc_sh SH012014 -9.00000 73.9000 DB 20 1007 -3 1009 170 40 -8.40000 73.5000 1 23 1005 1.50000 1.50000 1 11 272
2013296S07079 2014 85 SI MM NOT_NAMED 2013-10-24 09:00:00 TS -8.67112 73.1925 main 1825 1825 P____P________ SH012014 -8.84237 73.3999 DB 20 1007 -3 1009 170 40 -8.49988 72.9850 1 23 1005 10 273
2013296S07079 2014 85 SI MM NOT_NAMED 2013-10-24 12:00:00 TS -8.65000 72.7000 23 1005 reunion main 1840 1840 O____O________ jtwc_sh SH012014 -8.70000 72.9000 DB 20 1007 -3 1009 170 40 -8.60000 72.5000 1 23 1005 1.50000 1.50000 1 10 271
2013296S07079 2014 85 SI MM NOT_NAMED 2013-10-24 15:00:00 TS -8.65621 72.1750 main 1876 1876 P____P________ SH012014 -8.65495 72.3575 DB 20 1007 -3 1009 165 40 -8.65746 71.9925 1 23 1005 10 267
2013296S07079 2014 85 SI MM NOT_NAMED 2013-10-24 18:00:00 TS -8.70000 71.6500 23 1005 reunion main 1903 1903 O____O________ jtwc_sh SH012014 -8.70000 71.8000 DB 20 1007 -3 1009 160 40 -8.70000 71.5000 1 23 1005 1.50000 1.50000 1 10 262
2013296S07079 2014 85 SI MM NOT_NAMED 2013-10-24 21:00:00 TS -8.79997 71.1313 main 1917 1877 P____P________ SH012014 -8.84248 71.2351 DB 22 1005 -3 1009 160 40 -8.75747 71.0275 1 24 1004 10 259
2013296S07079 2014 85 SI MM NOT_NAMED 2013-10-25 00:00:00 TS -8.90000 70.6500 25 1004 reunion main 1877 1845 O____O________ jtwc_sh SH012014 -9.00000 70.7000 TD 25 1004 -1 1009 160 40 -8.80000 70.6000 2 25 1004 1.50000 1.50000 1 9 262
2013296S07079 2014 85 SI MM NOT_NAMED 2013-10-25 03:00:00 TS -8.92867 70.2312 main 1837 1814 P____P________ SH012014 -9.05744 70.2199 TD 25 1004 -1 1009 160 40 -8.79990 70.2425 2 25 1004 8 266
2013296S07079 2014 85 SI MM NOT_NAMED 2013-10-25 06:00:00 TS -8.95000 69.8500 25 1004 reunion main 1814 1775 O____O________ jtwc_sh SH012014 -9.10000 69.8000 TD 25 1004 -1 1009 160 40 -8.80000 69.9000 2 25 1004 1.50000 1.50000 1 8 264
2013296S07079 2014 85 SI MM NOT_NAMED 2013-10-25 09:00:00 TS -9.00998 69.4600 main 1775 1736 P____P________ SH012014 -9.18496 69.4200 TD 25 1004 -1 1009 160 40 -8.83500 69.5000 2 26 1003 8 259
2013296S07079 2014 85 SI MM NOT_NAMED 2013-10-25 12:00:00 TS -9.10000 69.1000 27 1002 reunion main 1736 1706 O____O________ jtwc_sh SH012014 -9.30000 69.1000 TD 25 1004 -1 1009 160 40 -8.90000 69.1000 2 27 1002 2.00000 2.00000 1 7 255
2013296S07079 2014 85 SI MM NOT_NAMED 2013-10-25 15:00:00 TS -9.18748 68.7737 main 1706 1675 P____P________ SH012014 -9.43495 68.8350 TD 27 1002 -1 1008 160 40 -8.94001 68.7124 2 28 1001 6 247
2013296S07079 2014 85 SI MM NOT_NAMED 2013-10-25 18:00:00 TS -9.35000 68.5000 30 1000 reunion main 1675 1635 O____O________ jtwc_sh SH012014 -9.60000 68.6000 TD 30 1000 -1 1008 160 40 -9.10000 68.4000 2 30 1000 2.50000 2.50000 1 7 228
2013296S07079 2014 85 SI MM NOT_NAMED 2013-10-25 21:00:00 TS -9.63748 68.2737 main 1635 1588 P____P________ SH012014 -9.77001 68.3350 TD 30 1000 -1 1005 160 32 -9.50495 68.2125 2 30 1000 8 211
2013296S07079 2014 85 SI MM NOT_NAMED 2013-10-26 00:00:00 TS -10.0000 68.1000 30 1000 reunion main 1588 1548 O____O________ jtwc_sh SH012014 -10.0000 68.1000 TD 30 1000 -1 1002 160 25 -10.0000 68.1000 2 30 1000 2.50000 2.50000 1 8 200
2013296S07079 2014 85 SI MM NOT_NAMED 2013-10-26 03:00:00 TS -10.3787 67.9936 main 1548 1516 P____P________ SH012014 -10.3424 67.9574 TD 30 1000 -1 1004 172 32 -10.4149 68.0298 2 30 1000 8 198
2013296S07079 2014 85 SI MM NOT_NAMED 2013-10-26 06:00:00 TS -10.7500 67.8500 30 1000 reunion main 1516 1461 O____O________ jtwc_sh SH012014 -10.7000 67.8000 TD 30 1000 -1 1006 185 40 -10.8000 67.9000 2 30 1000 2.50000 2.50000 1 8 210
2013296S07079 2014 85 SI MM NOT_NAMED 2013-10-26 09:00:00 TS -11.0724 67.5775 main 1461 1415 P____P________ SH012014 -10.9575 67.5299 TD 32 998 -1 1006 185 40 -11.1874 67.6251 2 31 999 9 227
2013296S07079 2014 85 SI MM NOT_NAMED 2013-10-26 12:00:00 TS -11.3500 67.2000 33 998 reunion main 1415 1360 O____O________ jtwc_sh SH012014 -11.2000 67.2000 TS 35 996 0 1006 185 40 -11.5000 67.2000 2 33 998 2.50000 2.50000 16 1 10 239
2013296S07079 2014 85 SI MM NOT_NAMED 2013-10-26 15:00:00 TS -11.5751 66.7361 main 1352 1306 P____P________ SH012014 -11.4850 66.8649 TS 35 996 0 1006 185 40 -11.6652 66.6073 2 34 997 10 244
2013296S07079 2014 85 SI MM NOT_NAMED 2013-10-26 18:00:00 TS -11.8000 66.2500 35 997 reunion main 1306 1252 O____O________ jtwc_sh SH012014 -11.8000 66.5000 TS 35 996 0 1006 185 40 -11.8000 66.0000 3 35 997 2.50000 2.50000 24 24 24 18 1 10 239
2013296S07079 2014 85 SI MM NOT_NAMED 2013-10-26 21:00:00 TS -12.0999 65.8350 main 1244 1197 P____P________ SH012014 -12.1575 66.1075 TS 37 994 0 1006 182 35 -12.0423 65.5625 3 33 998 10 233
2013296S07079 2014 85 SI MM NOT_NAMED 2013-10-27 00:00:00 TS -12.4000 65.4500 32 999 reunion main 1197 1143 O____O________ jtwc_sh SH012014 -12.5000 65.7000 TS 40 993 0 20 20 20 20 1006 180 30 -12.3000 65.2000 2 32 999 2.00000 2.50000 1 9 232
2013296S07079 2014 85 SI MM NOT_NAMED 2013-10-27 03:00:00 TS -12.6699 65.0788 main 1143 1106 P____P________ SH012014 -12.8174 65.3076 TS 37 994 0 20 20 20 20 1007 180 35 -12.5224 64.8499 2 31 1000 9 238
2013296S07079 2014 85 SI MM NOT_NAMED 2013-10-27 06:00:00 TS -12.8500 64.7000 30 1001 reunion main 1106 1069 O____O________ jtwc_sh SH012014 -13.0000 64.9000 TS 35 996 0 20 20 20 20 1008 180 40 -12.7000 64.5000 2 30 1001 2.00000 2.50000 1 8 255
2013296S07079 2014 85 SI MM NOT_NAMED 2013-10-27 09:00:00 TS -12.8762 64.2785 main 1069 1041 P____P________ SH012014 -12.9225 64.4571 TS 32 998 -1 1008 180 40 -12.8300 64.1000 2 28 1002 8 270
2013296S07079 2014 85 SI MM NOT_NAMED 2013-10-27 12:00:00 TS -12.8500 63.8500 27 1003 reunion main 1050 1009 O____O________ jtwc_sh SH012014 -12.8000 64.0000 TD 30 1000 -1 1008 180 40 -12.9000 63.7000 2 27 1003 1.50000 2.00000 1 8 269
2013296S07079 2014 85 SI MM NOT_NAMED 2013-10-27 15:00:00 TS -12.8850 63.4238 main 1009 990 P____P________ SH012014 -12.8701 63.5202 TD 27 1002 -1 1008 180 40 -12.9000 63.3274 2 26 1004 8 263
2013296S07079 2014 85 SI MM NOT_NAMED 2013-10-27 18:00:00 TS -12.9500 63.0500 25 1005 reunion main 990 962 O____O________ jtwc_sh SH012014 -13.0000 63.1000 TD 25 1004 -1 1008 180 40 -12.9000 63.0000 2 25 1005 1.50000 2.00000 1 7 257
2013296S07079 2014 85 SI MM NOT_NAMED 2013-10-27 21:00:00 TS -13.0312 62.7700 main 962 941 P____P________ SH012014 -13.0924 62.8124 TD 25 1004 -1 1008 180 40 -12.9699 62.7275 2 24 1006 5 248
2013296S07079 2014 85 SI MM NOT_NAMED 2013-10-28 00:00:00 TS -13.1500 62.5500 23 1007 reunion main 941 910 O____O________ jtwc_sh SH012014 -13.2000 62.6000 TD 25 1004 -1 1008 180 40 -13.1000 62.5000 6 23 1007 1.00000 1.50000 1 5 237
2013296S07079 2014 85 SI MM NOT_NAMED 2013-10-28 03:00:00 TS -13.2912 62.3536 main 910 880 P____P________ SH012014 -13.3199 62.3999 TD 25 1004 -1 1008 180 40 -13.2624 62.3074 6 23 1008 5 228
2013296S07079 2014 85 SI MM NOT_NAMED 2013-10-28 06:00:00 TS -13.5000 62.1500 23 1009 reunion main 880 840 O____O________ jtwc_sh SH012014 -13.5000 62.2000 TD 25 1004 -1 1008 180 40 -13.5000 62.1000 6 23 1009 1.00000 1.50000 1 7 218
2013296S07079 2014 85 SI MM NOT_NAMED 2013-10-28 09:00:00 TS -13.7985 61.9385 main 834 788 P____P________ SH012014 -13.7473 62.0096 TD 22 1005 -1 1008 180 40 -13.8497 61.8674 6 23 1009 8 219
2013296S07079 2014 85 SI MM NOT_NAMED 2013-10-28 12:00:00 TS -14.1500 61.6000 23 1009 reunion main 788 723 O____O________ jtwc_sh SH012014 -14.1000 61.7000 DB 20 1007 -3 1008 180 40 -14.2000 61.5000 6 23 1009 9.90000 1 11 228
2013296S07079 2014 85 SI MM NOT_NAMED 2013-10-28 15:00:00 TS -14.5673 61.0656 main 713 658 P____P________ SH012014 -14.6747 61.2061 DB 20 1007 -3 1008 180 40 -14.4600 60.9252 6 23 1009 14 240
2013296S07079 2014 85 SI MM NOT_NAMED 2013-10-28 18:00:00 TS -14.8500 60.3500 23 1009 reunion main 658 619 O____O________ jtwc_sh SH012014 -15.1000 60.5000 DB 20 1007 -3 1008 180 40 -14.6000 60.2000 6 23 1009 9.90000 1 15 261
2013296S07079 2014 85 SI MM NOT_NAMED 2013-10-28 21:00:00 TS -14.8153 59.4932 main 623 614 P____P________ SH012014 -15.0206 59.5640 DB 20 1007 -3 1008 180 40 -14.6099 59.4224 6 21 1009 17 278
2013296S07079 2014 85 SI MM NOT_NAMED 2013-10-29 00:00:00 TS -14.6000 58.6000 20 1010 reunion main 622 619 O____O________ jtwc_sh SH012014 -14.7000 58.6000 DB 20 1007 -3 1008 180 40 -14.5000 58.6000 6 20 1010 9.90000 1 17 285
2013296S07079 2014 85 SI MM NOT_NAMED 2013-10-29 03:00:00 TS -14.3758 57.8351 main 637 637 P____P________ SH012014 -14.4143 57.8777 DB 20 1007 -3 1008 180 40 -14.3373 57.7925 6 20 1010 15 289
2013296S07079 2014 85 SI MM NOT_NAMED 2013-10-29 06:00:00 TS -14.1000 57.1143 20 1010 reunion main 672 654 O____O________ jtwc_sh SH012014 -14.1000 57.2000 DB 20 1007 -3 1008 180 40 -14.1000 57.0000 6 20 1010 9.90000 1 16 292
2013296S07079 2014 85 SI MM NOT_NAMED 2013-10-29 09:00:00 TS -13.7944 56.3415 main 644 581 P____P________ SH012014 -13.7851 56.3924 DB 20 1007 -3 1008 180 40 -13.8129 56.2397 6 20 1010 16 292
2013296S07079 2014 85 SI MM NOT_NAMED 2013-10-29 12:00:00 TS -13.5000 55.5750 20 1010 reunion main 581 519 O____O________ jtwc_sh SH012014 -13.5000 55.6000 DB 20 1007 -3 1008 180 40 -13.5000 55.5000 6 20 1010 9.90000 1 15 290
2013296S07079 2014 85 SI MM NOT_NAMED 2013-10-29 15:00:00 NR -13.2801 54.9150 main 519 461 P_____________ SH012014 -13.2801 54.9150 DB 20 1007 -3 1008 180 40 6 13 288
2013296S07079 2014 85 SI MM NOT_NAMED 2013-10-29 18:00:00 NR -13.1000 54.3000 main 461 O_____________ jtwc_sh SH012014 -13.1000 54.3000 DB 20 1007 -3 1008 180 40 13 287

About IBTrACS Database

This database is a web-friendly format of International Best Track Archive for Climate Stewardship (IBTrACS), a global best track data archive curated by NOAA dating back to 1842.

Updated: 2021-10-19